sensor_id;sensor_type;location;lat;lon;timestamp;P1;durP1;ratioP1;P2;durP2;ratioP2
23990;SDS011;12205;50.600;4.608;2023-12-22T00:00:39;20.33;;;2.00;;
23990;SDS011;12205;50.600;4.608;2023-12-22T00:03:07;15.23;;;1.80;;
23990;SDS011;12205;50.600;4.608;2023-12-22T00:05:34;14.48;;;1.80;;
23990;SDS011;12205;50.600;4.608;2023-12-22T00:08:01;12.23;;;1.35;;
23990;SDS011;12205;50.600;4.608;2023-12-22T00:10:28;16.52;;;1.63;;
23990;SDS011;12205;50.600;4.608;2023-12-22T00:12:55;14.68;;;1.63;;
23990;SDS011;12205;50.600;4.608;2023-12-22T00:15:24;17.70;;;2.20;;
23990;SDS011;12205;50.600;4.608;2023-12-22T00:17:51;14.05;;;1.50;;
23990;SDS011;12205;50.600;4.608;2023-12-22T00:20:18;15.68;;;2.10;;
23990;SDS011;12205;50.600;4.608;2023-12-22T00:22:46;17.20;;;1.70;;
23990;SDS011;12205;50.600;4.608;2023-12-22T00:25:13;15.25;;;1.75;;
23990;SDS011;12205;50.600;4.608;2023-12-22T00:27:40;15.52;;;1.70;;
23990;SDS011;12205;50.600;4.608;2023-12-22T00:30:08;14.98;;;1.80;;
23990;SDS011;12205;50.600;4.608;2023-12-22T00:32:38;11.45;;;1.50;;
23990;SDS011;12205;50.600;4.608;2023-12-22T00:35:05;22.55;;;1.95;;
23990;SDS011;12205;50.600;4.608;2023-12-22T00:37:33;15.15;;;1.92;;
23990;SDS011;12205;50.600;4.608;2023-12-22T00:40:00;7.53;;;0.80;;
23990;SDS011;12205;50.600;4.608;2023-12-22T00:42:29;10.35;;;0.90;;
23990;SDS011;12205;50.600;4.608;2023-12-22T00:44:56;6.55;;;0.80;;
23990;SDS011;12205;50.600;4.608;2023-12-22T00:47:23;7.32;;;0.90;;
23990;SDS011;12205;50.600;4.608;2023-12-22T00:49:52;11.95;;;1.10;;
23990;SDS011;12205;50.600;4.608;2023-12-22T00:52:19;9.70;;;1.10;;
23990;SDS011;12205;50.600;4.608;2023-12-22T00:54:46;12.80;;;1.58;;
23990;SDS011;12205;50.600;4.608;2023-12-22T00:57:13;13.27;;;1.50;;
23990;SDS011;12205;50.600;4.608;2023-12-22T00:59:41;7.03;;;0.80;;
23990;SDS011;12205;50.600;4.608;2023-12-22T01:02:12;11.90;;;1.45;;
23990;SDS011;12205;50.600;4.608;2023-12-22T01:04:39;15.77;;;1.30;;
23990;SDS011;12205;50.600;4.608;2023-12-22T01:07:08;10.40;;;0.93;;
23990;SDS011;12205;50.600;4.608;2023-12-22T01:09:36;19.85;;;2.13;;
23990;SDS011;12205;50.600;4.608;2023-12-22T01:12:04;17.63;;;2.13;;
23990;SDS011;12205;50.600;4.608;2023-12-22T01:14:32;15.70;;;2.10;;
23990;SDS011;12205;50.600;4.608;2023-12-22T01:17:00;17.40;;;2.28;;
23990;SDS011;12205;50.600;4.608;2023-12-22T01:19:28;13.30;;;1.50;;
23990;SDS011;12205;50.600;4.608;2023-12-22T01:21:55;17.75;;;1.88;;
23990;SDS011;12205;50.600;4.608;2023-12-22T01:24:23;18.95;;;2.45;;
23990;SDS011;12205;50.600;4.608;2023-12-22T01:26:51;22.58;;;2.72;;
23990;SDS011;12205;50.600;4.608;2023-12-22T01:29:18;12.48;;;1.25;;
23990;SDS011;12205;50.600;4.608;2023-12-22T01:31:45;16.65;;;2.35;;
23990;SDS011;12205;50.600;4.608;2023-12-22T01:34:12;22.88;;;2.42;;
23990;SDS011;12205;50.600;4.608;2023-12-22T01:36:39;22.95;;;2.80;;
23990;SDS011;12205;50.600;4.608;2023-12-22T01:39:07;16.67;;;2.08;;
23990;SDS011;12205;50.600;4.608;2023-12-22T01:41:35;12.52;;;1.70;;
23990;SDS011;12205;50.600;4.608;2023-12-22T01:44:03;22.15;;;2.97;;
23990;SDS011;12205;50.600;4.608;2023-12-22T01:46:30;19.23;;;2.75;;
23990;SDS011;12205;50.600;4.608;2023-12-22T01:48:59;20.85;;;2.35;;
23990;SDS011;12205;50.600;4.608;2023-12-22T01:51:27;23.92;;;2.50;;
23990;SDS011;12205;50.600;4.608;2023-12-22T01:53:55;17.33;;;2.15;;
23990;SDS011;12205;50.600;4.608;2023-12-22T01:56:23;33.67;;;4.22;;
23990;SDS011;12205;50.600;4.608;2023-12-22T01:58:52;19.00;;;2.15;;
23990;SDS011;12205;50.600;4.608;2023-12-22T02:01:24;23.48;;;2.42;;
23990;SDS011;12205;50.600;4.608;2023-12-22T02:03:52;23.83;;;2.70;;
23990;SDS011;12205;50.600;4.608;2023-12-22T02:06:20;22.23;;;2.33;;
23990;SDS011;12205;50.600;4.608;2023-12-22T02:08:48;16.02;;;2.17;;
23990;SDS011;12205;50.600;4.608;2023-12-22T02:11:16;16.05;;;2.22;;
23990;SDS011;12205;50.600;4.608;2023-12-22T02:13:44;25.65;;;3.08;;
23990;SDS011;12205;50.600;4.608;2023-12-22T02:16:16;17.75;;;2.42;;
23990;SDS011;12205;50.600;4.608;2023-12-22T02:18:52;25.42;;;3.15;;
23990;SDS011;12205;50.600;4.608;2023-12-22T02:21:24;16.00;;;2.40;;
23990;SDS011;12205;50.600;4.608;2023-12-22T02:23:52;23.63;;;2.83;;
23990;SDS011;12205;50.600;4.608;2023-12-22T02:26:22;24.83;;;2.65;;
23990;SDS011;12205;50.600;4.608;2023-12-22T02:28:57;18.13;;;2.33;;
23990;SDS011;12205;50.600;4.608;2023-12-22T02:31:27;19.58;;;2.33;;
23990;SDS011;12205;50.600;4.608;2023-12-22T02:34:05;29.20;;;3.33;;
23990;SDS011;12205;50.600;4.608;2023-12-22T02:36:38;22.13;;;2.80;;
23990;SDS011;12205;50.600;4.608;2023-12-22T02:39:09;17.13;;;2.75;;
23990;SDS011;12205;50.600;4.608;2023-12-22T02:41:37;19.92;;;2.20;;
23990;SDS011;12205;50.600;4.608;2023-12-22T02:44:05;20.52;;;2.60;;
23990;SDS011;12205;50.600;4.608;2023-12-22T02:46:34;16.77;;;2.35;;
23990;SDS011;12205;50.600;4.608;2023-12-22T02:49:01;21.05;;;2.50;;
23990;SDS011;12205;50.600;4.608;2023-12-22T02:51:29;21.13;;;2.20;;
23990;SDS011;12205;50.600;4.608;2023-12-22T02:53:56;21.48;;;2.30;;
23990;SDS011;12205;50.600;4.608;2023-12-22T02:56:25;17.02;;;2.03;;
23990;SDS011;12205;50.600;4.608;2023-12-22T02:58:52;10.30;;;1.20;;
23990;SDS011;12205;50.600;4.608;2023-12-22T03:01:19;6.55;;;0.77;;
23990;SDS011;12205;50.600;4.608;2023-12-22T03:03:46;10.93;;;1.10;;
23990;SDS011;12205;50.600;4.608;2023-12-22T03:06:13;10.65;;;0.95;;
23990;SDS011;12205;50.600;4.608;2023-12-22T03:08:40;4.38;;;0.60;;
23990;SDS011;12205;50.600;4.608;2023-12-22T03:11:08;13.57;;;1.42;;
23990;SDS011;12205;50.600;4.608;2023-12-22T03:13:39;6.78;;;0.70;;
23990;SDS011;12205;50.600;4.608;2023-12-22T03:16:07;7.15;;;0.52;;
23990;SDS011;12205;50.600;4.608;2023-12-22T03:18:37;6.75;;;0.75;;
23990;SDS011;12205;50.600;4.608;2023-12-22T03:21:04;9.15;;;0.70;;
23990;SDS011;12205;50.600;4.608;2023-12-22T03:23:32;7.22;;;0.70;;
23990;SDS011;12205;50.600;4.608;2023-12-22T03:26:05;6.97;;;0.98;;
23990;SDS011;12205;50.600;4.608;2023-12-22T03:28:32;11.38;;;0.90;;
23990;SDS011;12205;50.600;4.608;2023-12-22T03:31:01;8.93;;;1.20;;
23990;SDS011;12205;50.600;4.608;2023-12-22T03:33:29;14.18;;;1.52;;
23990;SDS011;12205;50.600;4.608;2023-12-22T03:35:56;9.75;;;0.95;;
23990;SDS011;12205;50.600;4.608;2023-12-22T03:38:23;7.57;;;1.10;;
23990;SDS011;12205;50.600;4.608;2023-12-22T03:40:50;13.95;;;2.28;;
23990;SDS011;12205;50.600;4.608;2023-12-22T03:43:18;14.90;;;2.10;;
23990;SDS011;12205;50.600;4.608;2023-12-22T03:45:45;16.88;;;2.20;;
23990;SDS011;12205;50.600;4.608;2023-12-22T03:48:13;11.55;;;1.30;;
23990;SDS011;12205;50.600;4.608;2023-12-22T03:50:40;20.25;;;2.45;;
23990;SDS011;12205;50.600;4.608;2023-12-22T03:53:08;17.63;;;1.70;;
23990;SDS011;12205;50.600;4.608;2023-12-22T03:55:35;14.88;;;1.73;;
23990;SDS011;12205;50.600;4.608;2023-12-22T03:58:02;14.32;;;1.48;;
23990;SDS011;12205;50.600;4.608;2023-12-22T04:00:30;17.65;;;1.83;;
23990;SDS011;12205;50.600;4.608;2023-12-22T04:02:57;20.55;;;2.30;;
23990;SDS011;12205;50.600;4.608;2023-12-22T04:05:25;11.52;;;1.50;;
23990;SDS011;12205;50.600;4.608;2023-12-22T04:07:53;26.23;;;2.67;;
23990;SDS011;12205;50.600;4.608;2023-12-22T04:10:20;19.15;;;2.33;;
23990;SDS011;12205;50.600;4.608;2023-12-22T04:12:47;19.13;;;2.50;;
23990;SDS011;12205;50.600;4.608;2023-12-22T04:15:14;19.25;;;2.42;;
23990;SDS011;12205;50.600;4.608;2023-12-22T04:17:41;23.77;;;2.50;;
23990;SDS011;12205;50.600;4.608;2023-12-22T04:20:09;22.25;;;2.33;;
23990;SDS011;12205;50.600;4.608;2023-12-22T04:22:39;28.67;;;2.75;;
23990;SDS011;12205;50.600;4.608;2023-12-22T04:25:05;18.33;;;2.15;;
23990;SDS011;12205;50.600;4.608;2023-12-22T04:27:33;22.90;;;3.10;;
23990;SDS011;12205;50.600;4.608;2023-12-22T04:30:01;23.00;;;2.60;;
23990;SDS011;12205;50.600;4.608;2023-12-22T04:32:28;26.08;;;2.30;;
23990;SDS011;12205;50.600;4.608;2023-12-22T04:34:55;16.63;;;2.45;;
23990;SDS011;12205;50.600;4.608;2023-12-22T04:37:23;18.00;;;2.08;;
23990;SDS011;12205;50.600;4.608;2023-12-22T04:39:51;18.33;;;2.67;;
23990;SDS011;12205;50.600;4.608;2023-12-22T04:42:18;13.32;;;1.42;;
23990;SDS011;12205;50.600;4.608;2023-12-22T04:44:45;22.88;;;2.58;;
23990;SDS011;12205;50.600;4.608;2023-12-22T04:47:13;26.65;;;2.78;;
23990;SDS011;12205;50.600;4.608;2023-12-22T04:49:41;28.83;;;3.92;;
23990;SDS011;12205;50.600;4.608;2023-12-22T04:52:09;18.30;;;2.20;;
23990;SDS011;12205;50.600;4.608;2023-12-22T04:54:37;22.02;;;2.53;;
23990;SDS011;12205;50.600;4.608;2023-12-22T04:57:05;18.80;;;2.72;;
23990;SDS011;12205;50.600;4.608;2023-12-22T04:59:33;26.35;;;2.85;;
23990;SDS011;12205;50.600;4.608;2023-12-22T05:02:00;13.13;;;1.77;;
23990;SDS011;12205;50.600;4.608;2023-12-22T05:04:27;31.40;;;3.55;;
23990;SDS011;12205;50.600;4.608;2023-12-22T05:06:54;22.25;;;2.40;;
23990;SDS011;12205;50.600;4.608;2023-12-22T05:09:21;28.13;;;3.28;;
23990;SDS011;12205;50.600;4.608;2023-12-22T05:11:50;27.38;;;3.03;;
23990;SDS011;12205;50.600;4.608;2023-12-22T05:14:18;34.55;;;3.95;;
23990;SDS011;12205;50.600;4.608;2023-12-22T05:16:46;31.10;;;3.45;;
23990;SDS011;12205;50.600;4.608;2023-12-22T05:19:14;29.15;;;3.40;;
23990;SDS011;12205;50.600;4.608;2023-12-22T05:21:41;30.90;;;3.58;;
23990;SDS011;12205;50.600;4.608;2023-12-22T05:24:09;24.20;;;3.25;;
23990;SDS011;12205;50.600;4.608;2023-12-22T05:27:16;22.73;;;2.70;;
23990;SDS011;12205;50.600;4.608;2023-12-22T05:29:48;39.22;;;3.88;;
23990;SDS011;12205;50.600;4.608;2023-12-22T05:32:15;20.90;;;2.28;;
23990;SDS011;12205;50.600;4.608;2023-12-22T05:34:42;32.63;;;3.42;;
23990;SDS011;12205;50.600;4.608;2023-12-22T05:37:09;28.77;;;3.47;;
23990;SDS011;12205;50.600;4.608;2023-12-22T05:39:37;36.25;;;4.38;;
23990;SDS011;12205;50.600;4.608;2023-12-22T05:42:04;31.83;;;3.65;;
23990;SDS011;12205;50.600;4.608;2023-12-22T05:44:32;26.27;;;3.63;;
23990;SDS011;12205;50.600;4.608;2023-12-22T05:47:01;30.80;;;4.10;;
23990;SDS011;12205;50.600;4.608;2023-12-22T05:49:28;25.90;;;3.38;;
23990;SDS011;12205;50.600;4.608;2023-12-22T05:51:55;24.08;;;2.95;;
23990;SDS011;12205;50.600;4.608;2023-12-22T05:54:22;23.95;;;3.05;;
23990;SDS011;12205;50.600;4.608;2023-12-22T05:56:50;29.95;;;3.13;;
23990;SDS011;12205;50.600;4.608;2023-12-22T05:59:18;33.13;;;3.95;;
23990;SDS011;12205;50.600;4.608;2023-12-22T06:01:45;26.42;;;3.00;;
23990;SDS011;12205;50.600;4.608;2023-12-22T06:04:13;25.85;;;2.60;;
23990;SDS011;12205;50.600;4.608;2023-12-22T06:06:40;32.67;;;4.82;;
23990;SDS011;12205;50.600;4.608;2023-12-22T06:09:07;33.25;;;3.58;;
23990;SDS011;12205;50.600;4.608;2023-12-22T06:11:38;27.67;;;3.25;;
23990;SDS011;12205;50.600;4.608;2023-12-22T06:14:05;17.73;;;2.58;;
23990;SDS011;12205;50.600;4.608;2023-12-22T06:16:32;29.48;;;3.28;;
23990;SDS011;12205;50.600;4.608;2023-12-22T06:18:59;19.08;;;2.72;;
23990;SDS011;12205;50.600;4.608;2023-12-22T06:21:28;21.17;;;2.88;;
23990;SDS011;12205;50.600;4.608;2023-12-22T06:23:55;33.30;;;3.42;;
23990;SDS011;12205;50.600;4.608;2023-12-22T06:26:22;18.05;;;2.13;;
23990;SDS011;12205;50.600;4.608;2023-12-22T06:28:49;27.80;;;3.47;;
23990;SDS011;12205;50.600;4.608;2023-12-22T06:31:17;24.50;;;2.70;;
23990;SDS011;12205;50.600;4.608;2023-12-22T06:33:46;25.42;;;2.67;;
23990;SDS011;12205;50.600;4.608;2023-12-22T06:36:18;22.88;;;2.80;;
23990;SDS011;12205;50.600;4.608;2023-12-22T06:38:47;23.08;;;2.45;;
23990;SDS011;12205;50.600;4.608;2023-12-22T06:41:19;19.63;;;2.40;;
23990;SDS011;12205;50.600;4.608;2023-12-22T06:43:48;23.55;;;3.38;;
23990;SDS011;12205;50.600;4.608;2023-12-22T06:46:16;19.45;;;2.95;;
23990;SDS011;12205;50.600;4.608;2023-12-22T06:48:44;15.75;;;2.08;;
23990;SDS011;12205;50.600;4.608;2023-12-22T06:51:17;24.48;;;2.50;;
23990;SDS011;12205;50.600;4.608;2023-12-22T06:53:45;12.40;;;1.73;;
23990;SDS011;12205;50.600;4.608;2023-12-22T06:56:14;13.98;;;1.60;;
23990;SDS011;12205;50.600;4.608;2023-12-22T06:58:43;16.38;;;2.25;;
23990;SDS011;12205;50.600;4.608;2023-12-22T07:01:11;18.38;;;2.13;;
23990;SDS011;12205;50.600;4.608;2023-12-22T07:03:39;24.02;;;3.00;;
23990;SDS011;12205;50.600;4.608;2023-12-22T07:06:06;19.48;;;2.63;;
23990;SDS011;12205;50.600;4.608;2023-12-22T07:08:33;16.70;;;1.50;;
23990;SDS011;12205;50.600;4.608;2023-12-22T07:11:02;12.38;;;1.27;;
23990;SDS011;12205;50.600;4.608;2023-12-22T07:13:29;15.48;;;1.65;;
23990;SDS011;12205;50.600;4.608;2023-12-22T07:15:56;17.52;;;2.00;;
23990;SDS011;12205;50.600;4.608;2023-12-22T07:18:23;13.02;;;1.65;;
23990;SDS011;12205;50.600;4.608;2023-12-22T07:20:55;12.32;;;1.10;;
23990;SDS011;12205;50.600;4.608;2023-12-22T07:23:23;11.20;;;1.15;;
23990;SDS011;12205;50.600;4.608;2023-12-22T07:25:50;10.27;;;1.08;;
23990;SDS011;12205;50.600;4.608;2023-12-22T07:28:19;16.95;;;1.52;;
23990;SDS011;12205;50.600;4.608;2023-12-22T07:30:46;12.50;;;1.58;;
23990;SDS011;12205;50.600;4.608;2023-12-22T07:33:13;15.70;;;1.70;;
23990;SDS011;12205;50.600;4.608;2023-12-22T07:35:40;16.08;;;1.25;;
23990;SDS011;12205;50.600;4.608;2023-12-22T07:38:08;20.55;;;2.63;;
23990;SDS011;12205;50.600;4.608;2023-12-22T07:40:35;14.65;;;1.15;;
23990;SDS011;12205;50.600;4.608;2023-12-22T07:43:02;12.15;;;1.27;;
23990;SDS011;12205;50.600;4.608;2023-12-22T07:45:31;12.10;;;1.73;;
23990;SDS011;12205;50.600;4.608;2023-12-22T07:47:58;15.55;;;1.60;;
23990;SDS011;12205;50.600;4.608;2023-12-22T07:50:25;9.15;;;0.80;;
23990;SDS011;12205;50.600;4.608;2023-12-22T07:52:52;12.95;;;1.00;;
23990;SDS011;12205;50.600;4.608;2023-12-22T07:55:20;9.73;;;1.05;;
23990;SDS011;12205;50.600;4.608;2023-12-22T07:57:47;7.43;;;0.77;;
23990;SDS011;12205;50.600;4.608;2023-12-22T08:00:14;7.60;;;0.80;;
23990;SDS011;12205;50.600;4.608;2023-12-22T08:02:43;7.32;;;0.50;;
23990;SDS011;12205;50.600;4.608;2023-12-22T08:05:11;7.30;;;0.88;;
23990;SDS011;12205;50.600;4.608;2023-12-22T08:07:39;6.15;;;0.68;;
23990;SDS011;12205;50.600;4.608;2023-12-22T08:10:07;6.72;;;0.65;;
23990;SDS011;12205;50.600;4.608;2023-12-22T08:12:35;10.95;;;0.73;;
23990;SDS011;12205;50.600;4.608;2023-12-22T08:15:02;7.93;;;0.60;;
23990;SDS011;12205;50.600;4.608;2023-12-22T08:17:30;4.35;;;0.30;;
23990;SDS011;12205;50.600;4.608;2023-12-22T08:20:00;5.28;;;0.60;;
23990;SDS011;12205;50.600;4.608;2023-12-22T08:22:27;3.70;;;0.32;;
23990;SDS011;12205;50.600;4.608;2023-12-22T08:24:54;4.28;;;0.50;;
23990;SDS011;12205;50.600;4.608;2023-12-22T08:27:21;7.32;;;0.47;;
23990;SDS011;12205;50.600;4.608;2023-12-22T08:29:48;6.13;;;0.43;;
23990;SDS011;12205;50.600;4.608;2023-12-22T08:32:15;6.78;;;0.63;;
23990;SDS011;12205;50.600;4.608;2023-12-22T08:34:42;3.85;;;0.60;;
23990;SDS011;12205;50.600;4.608;2023-12-22T08:37:12;4.15;;;0.50;;
23990;SDS011;12205;50.600;4.608;2023-12-22T08:39:39;4.35;;;0.50;;
23990;SDS011;12205;50.600;4.608;2023-12-22T08:42:06;3.97;;;0.75;;
23990;SDS011;12205;50.600;4.608;2023-12-22T08:44:32;2.85;;;0.57;;
23990;SDS011;12205;50.600;4.608;2023-12-22T08:46:59;7.57;;;0.90;;
23990;SDS011;12205;50.600;4.608;2023-12-22T08:49:27;3.30;;;0.80;;
23990;SDS011;12205;50.600;4.608;2023-12-22T08:51:54;7.35;;;1.13;;
23990;SDS011;12205;50.600;4.608;2023-12-22T08:54:22;5.40;;;0.80;;
23990;SDS011;12205;50.600;4.608;2023-12-22T08:56:51;5.63;;;0.95;;
23990;SDS011;12205;50.600;4.608;2023-12-22T08:59:18;3.50;;;0.88;;
23990;SDS011;12205;50.600;4.608;2023-12-22T09:01:46;8.48;;;1.15;;
23990;SDS011;12205;50.600;4.608;2023-12-22T09:04:13;12.30;;;1.30;;
23990;SDS011;12205;50.600;4.608;2023-12-22T09:06:41;5.80;;;1.00;;
23990;SDS011;12205;50.600;4.608;2023-12-22T09:09:08;10.38;;;1.17;;
23990;SDS011;12205;50.600;4.608;2023-12-22T09:11:37;6.65;;;0.90;;
23990;SDS011;12205;50.600;4.608;2023-12-22T09:14:05;6.38;;;1.08;;
23990;SDS011;12205;50.600;4.608;2023-12-22T09:16:34;6.90;;;1.10;;
23990;SDS011;12205;50.600;4.608;2023-12-22T09:19:02;11.20;;;1.60;;
23990;SDS011;12205;50.600;4.608;2023-12-22T09:21:30;5.97;;;1.00;;
23990;SDS011;12205;50.600;4.608;2023-12-22T09:23:57;6.07;;;1.00;;
23990;SDS011;12205;50.600;4.608;2023-12-22T09:26:25;10.85;;;1.38;;
23990;SDS011;12205;50.600;4.608;2023-12-22T09:28:54;7.63;;;1.10;;
23990;SDS011;12205;50.600;4.608;2023-12-22T09:31:22;9.75;;;1.33;;
23990;SDS011;12205;50.600;4.608;2023-12-22T09:33:49;6.22;;;0.73;;
23990;SDS011;12205;50.600;4.608;2023-12-22T09:36:16;7.53;;;0.80;;
23990;SDS011;12205;50.600;4.608;2023-12-22T09:38:43;7.53;;;1.10;;
23990;SDS011;12205;50.600;4.608;2023-12-22T09:41:11;6.32;;;1.00;;
23990;SDS011;12205;50.600;4.608;2023-12-22T09:44:05;5.20;;;0.70;;
23990;SDS011;12205;50.600;4.608;2023-12-22T09:46:33;6.05;;;0.82;;
23990;SDS011;12205;50.600;4.608;2023-12-22T09:49:11;7.10;;;1.15;;
23990;SDS011;12205;50.600;4.608;2023-12-22T09:51:40;6.18;;;0.70;;
23990;SDS011;12205;50.600;4.608;2023-12-22T09:54:10;7.50;;;0.50;;
23990;SDS011;12205;50.600;4.608;2023-12-22T09:56:40;3.03;;;0.50;;
23990;SDS011;12205;50.600;4.608;2023-12-22T09:59:10;8.65;;;0.80;;
23990;SDS011;12205;50.600;4.608;2023-12-22T10:01:40;10.55;;;0.80;;
23990;SDS011;12205;50.600;4.608;2023-12-22T10:04:11;6.00;;;0.52;;
23990;SDS011;12205;50.600;4.608;2023-12-22T10:06:38;5.07;;;0.60;;
23990;SDS011;12205;50.600;4.608;2023-12-22T10:09:07;3.90;;;0.50;;
23990;SDS011;12205;50.600;4.608;2023-12-22T10:11:36;4.18;;;0.50;;
23990;SDS011;12205;50.600;4.608;2023-12-22T10:14:05;2.58;;;0.30;;
23990;SDS011;12205;50.600;4.608;2023-12-22T10:16:36;2.95;;;0.63;;
23990;SDS011;12205;50.600;4.608;2023-12-22T10:19:03;3.25;;;0.43;;
23990;SDS011;12205;50.600;4.608;2023-12-22T10:21:33;2.97;;;0.30;;
23990;SDS011;12205;50.600;4.608;2023-12-22T10:24:00;3.95;;;0.28;;
23990;SDS011;12205;50.600;4.608;2023-12-22T10:26:28;3.25;;;0.32;;
23990;SDS011;12205;50.600;4.608;2023-12-22T10:28:55;9.52;;;0.60;;
23990;SDS011;12205;50.600;4.608;2023-12-22T10:31:22;4.65;;;0.43;;
23990;SDS011;12205;50.600;4.608;2023-12-22T10:33:53;7.07;;;0.52;;
23990;SDS011;12205;50.600;4.608;2023-12-22T10:36:20;5.22;;;0.50;;
23990;SDS011;12205;50.600;4.608;2023-12-22T10:38:47;6.65;;;0.55;;
23990;SDS011;12205;50.600;4.608;2023-12-22T10:41:15;3.80;;;0.50;;
23990;SDS011;12205;50.600;4.608;2023-12-22T10:43:42;2.17;;;0.20;;
23990;SDS011;12205;50.600;4.608;2023-12-22T10:46:10;10.70;;;1.13;;
23990;SDS011;12205;50.600;4.608;2023-12-22T10:48:39;3.45;;;0.47;;
23990;SDS011;12205;50.600;4.608;2023-12-22T10:51:10;4.07;;;0.40;;
23990;SDS011;12205;50.600;4.608;2023-12-22T10:53:40;7.43;;;0.70;;
23990;SDS011;12205;50.600;4.608;2023-12-22T10:56:08;3.60;;;0.40;;
23990;SDS011;12205;50.600;4.608;2023-12-22T10:58:35;3.92;;;0.30;;
23990;SDS011;12205;50.600;4.608;2023-12-22T11:01:04;4.32;;;0.40;;
23990;SDS011;12205;50.600;4.608;2023-12-22T11:03:34;5.15;;;0.85;;
23990;SDS011;12205;50.600;4.608;2023-12-22T11:06:06;8.85;;;1.25;;
23990;SDS011;12205;50.600;4.608;2023-12-22T11:08:38;3.55;;;0.60;;
23990;SDS011;12205;50.600;4.608;2023-12-22T11:11:12;3.70;;;1.27;;
23990;SDS011;12205;50.600;4.608;2023-12-22T11:13:47;7.82;;;0.68;;
23990;SDS011;12205;50.600;4.608;2023-12-22T11:16:15;5.05;;;0.38;;
23990;SDS011;12205;50.600;4.608;2023-12-22T11:18:44;2.67;;;0.40;;
23990;SDS011;12205;50.600;4.608;2023-12-22T11:21:24;6.07;;;0.50;;
23990;SDS011;12205;50.600;4.608;2023-12-22T11:23:54;3.22;;;0.30;;
23990;SDS011;12205;50.600;4.608;2023-12-22T11:26:22;2.13;;;0.30;;
23990;SDS011;12205;50.600;4.608;2023-12-22T11:28:51;4.35;;;0.50;;
23990;SDS011;12205;50.600;4.608;2023-12-22T11:31:19;2.33;;;0.35;;
23990;SDS011;12205;50.600;4.608;2023-12-22T11:33:48;3.95;;;0.45;;
23990;SDS011;12205;50.600;4.608;2023-12-22T11:36:17;1.55;;;0.30;;
23990;SDS011;12205;50.600;4.608;2023-12-22T11:38:46;3.05;;;0.38;;
23990;SDS011;12205;50.600;4.608;2023-12-22T11:41:15;8.35;;;0.40;;
23990;SDS011;12205;50.600;4.608;2023-12-22T11:43:46;2.05;;;0.40;;
23990;SDS011;12205;50.600;4.608;2023-12-22T11:46:16;2.60;;;0.65;;
23990;SDS011;12205;50.600;4.608;2023-12-22T11:48:47;3.30;;;0.50;;
23990;SDS011;12205;50.600;4.608;2023-12-22T11:51:15;3.10;;;0.28;;
23990;SDS011;12205;50.600;4.608;2023-12-22T11:53:44;2.88;;;0.30;;
23990;SDS011;12205;50.600;4.608;2023-12-22T11:56:12;4.22;;;0.40;;
23990;SDS011;12205;50.600;4.608;2023-12-22T11:58:43;2.88;;;0.28;;
23990;SDS011;12205;50.600;4.608;2023-12-22T12:01:16;5.25;;;0.38;;
23990;SDS011;12205;50.600;4.608;2023-12-22T12:03:48;1.65;;;0.22;;
23990;SDS011;12205;50.600;4.608;2023-12-22T12:06:21;1.63;;;0.22;;
23990;SDS011;12205;50.600;4.608;2023-12-22T12:09:00;2.97;;;0.30;;
23990;SDS011;12205;50.600;4.608;2023-12-22T12:14:40;1.85;;;0.20;;
23990;SDS011;12205;50.600;4.608;2023-12-22T12:17:10;4.07;;;0.30;;
23990;SDS011;12205;50.600;4.608;2023-12-22T12:19:38;0.63;;;0.10;;
23990;SDS011;12205;50.600;4.608;2023-12-22T12:22:06;2.45;;;0.45;;
23990;SDS011;12205;50.600;4.608;2023-12-22T12:24:37;1.60;;;0.30;;
23990;SDS011;12205;50.600;4.608;2023-12-22T12:27:05;3.30;;;0.35;;
23990;SDS011;12205;50.600;4.608;2023-12-22T12:29:32;4.35;;;0.50;;
23990;SDS011;12205;50.600;4.608;2023-12-22T12:32:03;4.90;;;0.47;;
23990;SDS011;12205;50.600;4.608;2023-12-22T12:34:31;3.92;;;0.25;;
23990;SDS011;12205;50.600;4.608;2023-12-22T12:36:59;3.47;;;0.40;;
23990;SDS011;12205;50.600;4.608;2023-12-22T12:39:29;2.45;;;0.30;;
23990;SDS011;12205;50.600;4.608;2023-12-22T12:42:01;3.47;;;0.30;;
23990;SDS011;12205;50.600;4.608;2023-12-22T12:44:33;3.13;;;0.25;;
23990;SDS011;12205;50.600;4.608;2023-12-22T12:47:10;7.85;;;1.60;;
23990;SDS011;12205;50.600;4.608;2023-12-22T12:49:39;4.90;;;0.40;;
23990;SDS011;12205;50.600;4.608;2023-12-22T12:52:11;2.47;;;0.30;;
23990;SDS011;12205;50.600;4.608;2023-12-22T12:54:40;1.00;;;0.20;;
23990;SDS011;12205;50.600;4.608;2023-12-22T12:57:14;2.05;;;0.20;;
23990;SDS011;12205;50.600;4.608;2023-12-22T12:59:44;4.43;;;0.20;;
23990;SDS011;12205;50.600;4.608;2023-12-22T13:04:40;3.72;;;0.40;;
23990;SDS011;12205;50.600;4.608;2023-12-22T13:07:08;6.07;;;0.50;;
23990;SDS011;12205;50.600;4.608;2023-12-22T13:09:38;2.35;;;0.22;;
23990;SDS011;12205;50.600;4.608;2023-12-22T13:12:07;5.00;;;0.35;;
23990;SDS011;12205;50.600;4.608;2023-12-22T13:14:37;0.80;;;0.20;;
23990;SDS011;12205;50.600;4.608;2023-12-22T13:17:04;4.05;;;0.30;;
23990;SDS011;12205;50.600;4.608;2023-12-22T13:19:31;5.13;;;0.50;;
23990;SDS011;12205;50.600;4.608;2023-12-22T13:21:59;5.00;;;1.00;;
23990;SDS011;12205;50.600;4.608;2023-12-22T13:24:27;5.05;;;0.40;;
23990;SDS011;12205;50.600;4.608;2023-12-22T13:27:00;4.28;;;0.40;;
23990;SDS011;12205;50.600;4.608;2023-12-22T13:29:42;1.10;;;0.30;;
23990;SDS011;12205;50.600;4.608;2023-12-22T13:32:17;2.72;;;0.40;;
23990;SDS011;12205;50.600;4.608;2023-12-22T13:34:52;4.65;;;0.50;;
23990;SDS011;12205;50.600;4.608;2023-12-22T13:37:21;3.63;;;0.30;;
23990;SDS011;12205;50.600;4.608;2023-12-22T13:39:49;3.92;;;0.35;;
23990;SDS011;12205;50.600;4.608;2023-12-22T13:42:18;3.03;;;0.30;;
23990;SDS011;12205;50.600;4.608;2023-12-22T13:44:59;3.13;;;0.40;;
23990;SDS011;12205;50.600;4.608;2023-12-22T13:47:29;3.63;;;0.25;;
23990;SDS011;12205;50.600;4.608;2023-12-22T13:50:03;1.45;;;0.43;;
23990;SDS011;12205;50.600;4.608;2023-12-22T13:53:09;2.05;;;0.38;;
23990;SDS011;12205;50.600;4.608;2023-12-22T13:55:36;1.77;;;0.35;;
23990;SDS011;12205;50.600;4.608;2023-12-22T13:58:04;4.28;;;0.40;;
23990;SDS011;12205;50.600;4.608;2023-12-22T14:00:33;6.30;;;0.52;;
23990;SDS011;12205;50.600;4.608;2023-12-22T14:03:07;4.20;;;0.47;;
23990;SDS011;12205;50.600;4.608;2023-12-22T14:05:34;4.93;;;0.40;;
23990;SDS011;12205;50.600;4.608;2023-12-22T14:08:02;3.20;;;0.30;;
23990;SDS011;12205;50.600;4.608;2023-12-22T14:10:36;2.28;;;0.43;;
23990;SDS011;12205;50.600;4.608;2023-12-22T14:13:04;7.68;;;0.70;;
23990;SDS011;12205;50.600;4.608;2023-12-22T14:15:32;2.42;;;0.22;;
23990;SDS011;12205;50.600;4.608;2023-12-22T14:17:59;3.20;;;0.25;;
23990;SDS011;12205;50.600;4.608;2023-12-22T14:20:26;3.63;;;0.40;;
23990;SDS011;12205;50.600;4.608;2023-12-22T14:22:54;8.30;;;1.50;;
23990;SDS011;12205;50.600;4.608;2023-12-22T14:25:21;9.60;;;1.13;;
23990;SDS011;12205;50.600;4.608;2023-12-22T14:27:50;8.13;;;0.98;;
23990;SDS011;12205;50.600;4.608;2023-12-22T14:30:19;3.80;;;0.95;;
23990;SDS011;12205;50.600;4.608;2023-12-22T14:32:47;5.07;;;0.50;;
23990;SDS011;12205;50.600;4.608;2023-12-22T14:35:14;5.47;;;0.50;;
23990;SDS011;12205;50.600;4.608;2023-12-22T14:37:41;2.28;;;0.43;;
23990;SDS011;12205;50.600;4.608;2023-12-22T14:40:10;8.27;;;0.70;;
23990;SDS011;12205;50.600;4.608;2023-12-22T14:42:38;3.65;;;0.50;;
23990;SDS011;12205;50.600;4.608;2023-12-22T14:45:05;3.63;;;0.43;;
23990;SDS011;12205;50.600;4.608;2023-12-22T14:47:33;4.78;;;0.50;;
23990;SDS011;12205;50.600;4.608;2023-12-22T14:50:02;11.95;;;0.90;;
23990;SDS011;12205;50.600;4.608;2023-12-22T14:52:31;4.88;;;0.43;;
23990;SDS011;12205;50.600;4.608;2023-12-22T14:54:58;8.10;;;0.60;;